createdAt,value
2022-11-01T00:00:35.751Z,8.20
2022-11-01T00:03:03.511Z,8.20
2022-11-01T00:05:29.810Z,8.10
2022-11-01T00:07:56.040Z,8.20
2022-11-01T00:10:22.374Z,8.20
2022-11-01T00:12:49.126Z,8.30
2022-11-01T00:15:15.437Z,8.30
2022-11-01T00:17:41.876Z,8.30
2022-11-01T00:20:09.882Z,8.30
2022-11-01T00:22:37.011Z,8.50
2022-11-01T00:25:04.261Z,8.60
2022-11-01T00:27:30.459Z,8.80
2022-11-01T00:29:56.687Z,9.00
2022-11-01T00:32:22.944Z,9.20
2022-11-01T00:34:50.180Z,9.20
2022-11-01T00:37:16.395Z,9.30
2022-11-01T00:39:43.564Z,9.20
2022-11-01T00:42:10.804Z,9.10
2022-11-01T00:44:37.020Z,9.00
2022-11-01T00:47:03.173Z,9.00
2022-11-01T00:49:29.376Z,8.90
2022-11-01T00:51:56.639Z,8.90
2022-11-01T00:54:23.775Z,8.90
2022-11-01T00:56:50.010Z,8.90
2022-11-01T00:59:16.231Z,9.00
2022-11-01T01:01:42.630Z,8.90
2022-11-01T01:04:09.095Z,8.80
2022-11-01T01:06:36.267Z,8.70
2022-11-01T01:09:02.581Z,8.60
2022-11-01T01:11:28.805Z,7.50
2022-11-01T01:13:55.028Z,8.50
2022-11-01T01:16:21.241Z,8.50
2022-11-01T01:18:47.848Z,8.60
2022-11-01T01:21:15.296Z,8.70
2022-11-01T01:23:43.869Z,8.90
2022-11-01T01:26:10.772Z,9.00
2022-11-01T01:28:43.458Z,9.10
2022-11-01T01:31:12.423Z,9.20
2022-11-01T01:33:38.624Z,9.10
2022-11-01T01:36:05.928Z,9.10
2022-11-01T01:38:35.539Z,9.00
2022-11-01T01:41:23.078Z,9.10
2022-11-01T01:43:49.385Z,9.00
2022-11-01T01:46:15.558Z,9.00
2022-11-01T01:48:44.583Z,9.10
2022-11-01T01:51:21.246Z,9.20
2022-11-01T01:53:52.260Z,9.20
2022-11-01T01:56:31.137Z,9.20
2022-11-01T01:59:08.428Z,9.30
2022-11-01T02:01:38.179Z,9.30
2022-11-01T02:04:06.831Z,9.10
2022-11-01T02:06:33.185Z,9.00
2022-11-01T02:09:00.330Z,9.10
2022-11-01T02:11:27.656Z,9.00
2022-11-01T02:13:53.985Z,9.00
2022-11-01T02:19:54.464Z,9.10
2022-11-01T02:24:02.062Z,9.10
2022-11-01T02:30:02.073Z,9.30
2022-11-01T02:33:35.272Z,9.40
2022-11-01T02:36:05.831Z,9.40
2022-11-01T02:38:41.448Z,9.30
2022-11-01T02:41:33.171Z,9.30
2022-11-01T02:44:03.550Z,9.30
2022-11-01T02:47:02.544Z,9.30
2022-11-01T02:49:40.389Z,9.30
2022-11-01T02:52:08.197Z,9.10
2022-11-01T02:54:44.832Z,8.90
2022-11-01T02:58:01.985Z,8.80
2022-11-01T03:00:30.519Z,8.30
2022-11-01T03:03:17.671Z,7.90
2022-11-01T03:06:12.018Z,7.60
2022-11-01T03:08:46.964Z,7.50
2022-11-01T03:11:24.063Z,7.40
2022-11-01T03:15:20.201Z,7.30
2022-11-01T03:20:47.785Z,7.20
2022-11-01T03:23:28.232Z,7.20
2022-11-01T03:25:55.680Z,7.20
2022-11-01T03:28:24.980Z,7.10
2022-11-01T03:31:36.708Z,7.10
2022-11-01T03:34:11.759Z,7.40
2022-11-01T03:36:39.893Z,7.50
2022-11-01T03:39:15.549Z,7.50
2022-11-01T03:41:46.367Z,7.60
2022-11-01T03:44:14.619Z,7.60
2022-11-01T03:46:43.421Z,7.70
2022-11-01T03:49:09.847Z,7.70
2022-11-01T03:51:36.083Z,7.60
2022-11-01T03:54:02.315Z,7.80
2022-11-01T03:56:31.695Z,7.90
2022-11-01T03:58:57.905Z,7.90
2022-11-01T04:01:24.287Z,8.00
2022-11-01T04:03:51.008Z,7.90
2022-11-01T04:06:18.360Z,7.90
2022-11-01T04:08:44.540Z,7.80
2022-11-01T04:11:11.332Z,7.60
2022-11-01T04:13:38.418Z,7.40
2022-11-01T04:16:23.257Z,7.20
2022-11-01T04:19:08.249Z,7.20
2022-11-01T04:21:34.432Z,7.30
2022-11-01T04:24:00.573Z,7.40
2022-11-01T04:26:27.065Z,7.50
2022-11-01T04:28:57.671Z,7.70
2022-11-01T04:31:32.555Z,7.70
2022-11-01T04:33:59.044Z,7.70
2022-11-01T04:36:25.417Z,7.80
2022-11-01T04:38:55.367Z,7.80
2022-11-01T04:41:26.429Z,7.80
2022-11-01T04:43:53.875Z,7.60
2022-11-01T04:46:22.859Z,7.50
2022-11-01T04:48:49.479Z,7.30
2022-11-01T04:51:17.097Z,7.20
2022-11-01T04:53:43.456Z,7.20
2022-11-01T04:56:12.035Z,7.20
2022-11-01T04:58:43.004Z,7.20
2022-11-01T05:01:16.434Z,7.10
2022-11-01T05:03:50.475Z,7.00
2022-11-01T05:06:17.828Z,7.20
2022-11-01T05:08:44.053Z,7.40
2022-11-01T05:11:10.288Z,7.50
2022-11-01T05:13:39.026Z,7.60
2022-11-01T05:16:19.018Z,7.80
2022-11-01T05:18:46.092Z,7.90
2022-11-01T05:21:12.601Z,7.80
2022-11-01T05:23:42.381Z,7.70
2022-11-01T05:26:08.725Z,7.80
2022-11-01T05:28:37.951Z,7.70
2022-11-01T05:31:06.155Z,7.60
2022-11-01T05:33:32.592Z,7.90
2022-11-01T05:36:01.295Z,8.00
2022-11-01T05:38:27.540Z,8.00
2022-11-01T05:40:54.100Z,8.00
2022-11-01T05:43:20.563Z,8.00
2022-11-01T05:45:47.112Z,8.00
2022-11-01T05:48:13.393Z,7.90
2022-11-01T05:50:39.649Z,7.80
2022-11-01T05:53:07.196Z,7.80
2022-11-01T05:55:35.742Z,7.70
2022-11-01T05:58:03.107Z,7.50
2022-11-01T06:00:29.585Z,7.40
2022-11-01T06:02:59.379Z,7.10
2022-11-01T06:05:26.670Z,7.30
2022-11-01T06:07:53.114Z,7.40
2022-11-01T06:10:19.531Z,7.50
2022-11-01T06:12:46.009Z,7.60
2022-11-01T06:15:13.132Z,7.60
2022-11-01T06:17:39.631Z,7.70
2022-11-01T06:20:06.975Z,7.70
2022-11-01T06:22:38.082Z,7.80
2022-11-01T06:25:08.013Z,8.00
2022-11-01T06:27:34.536Z,8.10
2022-11-01T06:30:03.124Z,8.10
2022-11-01T06:32:30.414Z,7.30
2022-11-01T06:34:56.629Z,8.30
2022-11-01T06:37:22.783Z,8.30
2022-11-01T06:39:49.265Z,8.30
2022-11-01T06:42:15.531Z,8.40
2022-11-01T06:44:42.459Z,8.40
2022-11-01T06:47:08.989Z,8.50
2022-11-01T06:49:35.294Z,8.40
2022-11-01T06:52:05.509Z,8.40
2022-11-01T06:54:32.034Z,8.40
2022-11-01T06:56:58.482Z,8.40
2022-11-01T06:59:24.912Z,8.50
2022-11-01T07:01:54.171Z,8.60
2022-11-01T07:04:21.684Z,8.70
2022-11-01T07:06:47.992Z,8.90
2022-11-01T07:09:14.154Z,9.20
2022-11-01T07:11:40.653Z,9.30
2022-11-01T07:14:06.800Z,9.40
2022-11-01T07:16:33.043Z,9.60
2022-11-01T07:18:59.244Z,9.80
2022-11-01T07:21:29.760Z,9.80
2022-11-01T07:23:57.335Z,10.10
2022-11-01T07:26:27.336Z,10.60
2022-11-01T07:29:00.458Z,11.20
2022-11-01T07:31:26.816Z,10.90
2022-11-01T07:33:53.612Z,11.10
2022-11-01T07:36:20.044Z,11.20
2022-11-01T07:38:46.882Z,11.10
2022-11-01T07:41:13.227Z,11.00
2022-11-01T07:43:40.146Z,10.70
2022-11-01T07:46:06.743Z,10.90
2022-11-01T07:48:33.182Z,11.50
2022-11-01T07:50:59.448Z,11.30
2022-11-01T07:53:25.623Z,11.30
2022-11-01T07:55:51.894Z,11.70
2022-11-01T07:58:18.181Z,11.80
2022-11-01T08:00:44.814Z,11.90
2022-11-01T08:03:13.464Z,12.10
2022-11-01T08:05:39.703Z,12.30
2022-11-01T08:08:06.531Z,12.60
2022-11-01T08:10:33.325Z,12.50
2022-11-01T08:13:01.347Z,13.00
2022-11-01T08:15:27.869Z,13.10
2022-11-01T08:17:57.160Z,13.60
2022-11-01T08:20:24.138Z,14.10
2022-11-01T08:22:52.176Z,14.00
2022-11-01T08:25:18.505Z,13.60
2022-11-01T08:27:45.548Z,13.30
2022-11-01T08:30:13.249Z,12.90
2022-11-01T08:32:39.492Z,13.00
2022-11-01T08:35:06.794Z,13.00
2022-11-01T08:37:32.975Z,13.00
2022-11-01T08:39:59.359Z,13.00
2022-11-01T08:42:26.211Z,13.20
2022-11-01T08:44:52.637Z,13.20
2022-11-01T08:47:18.950Z,12.70
2022-11-01T08:49:45.181Z,12.90
2022-11-01T08:52:12.658Z,12.90
2022-11-01T08:54:38.860Z,12.90
2022-11-01T08:57:05.153Z,12.90
2022-11-01T08:59:31.526Z,13.00
2022-11-01T09:01:58.425Z,13.10
2022-11-01T09:04:24.795Z,13.10
2022-11-01T09:06:51.132Z,13.50
2022-11-01T09:09:17.766Z,13.70
2022-11-01T09:11:43.955Z,14.00
2022-11-01T09:14:10.839Z,14.50
2022-11-01T09:16:37.265Z,14.70
2022-11-01T09:19:03.591Z,15.00
2022-11-01T09:21:31.820Z,15.00
2022-11-01T09:23:59.441Z,15.10
2022-11-01T09:26:27.090Z,15.20
2022-11-01T09:28:55.465Z,15.40
2022-11-01T09:31:22.263Z,15.50
2022-11-01T09:33:51.428Z,15.60
2022-11-01T09:36:17.832Z,15.80
2022-11-01T09:38:45.078Z,16.00
2022-11-01T09:41:33.303Z,16.00
2022-11-01T09:44:00.790Z,16.10
2022-11-01T09:46:30.694Z,16.40
2022-11-01T09:49:01.106Z,16.30
2022-11-01T09:51:29.194Z,16.10
2022-11-01T09:53:58.760Z,16.20
2022-11-01T09:58:06.609Z,16.00
2022-11-01T10:00:40.012Z,15.80
2022-11-01T10:03:17.299Z,15.80
2022-11-01T10:07:47.223Z,15.90
2022-11-01T10:11:47.877Z,16.20
2022-11-01T10:17:51.876Z,16.60
2022-11-01T10:20:22.042Z,16.80
2022-11-01T10:22:49.217Z,16.60
2022-11-01T10:25:37.504Z,16.50
2022-11-01T10:30:02.786Z,16.50
2022-11-01T10:34:02.226Z,16.50
2022-11-01T10:36:39.965Z,16.70
2022-11-01T10:39:58.043Z,17.10
2022-11-01T10:42:29.366Z,17.50
2022-11-01T10:45:15.458Z,17.60
2022-11-01T10:47:43.503Z,17.80
2022-11-01T10:50:22.819Z,17.90
2022-11-01T10:53:11.648Z,18.10
2022-11-01T10:55:43.298Z,18.30
2022-11-01T10:58:39.467Z,18.30
2022-11-01T11:01:07.223Z,18.10
2022-11-01T11:03:34.387Z,17.70
2022-11-01T11:06:05.435Z,17.40
2022-11-01T11:08:31.731Z,17.10
2022-11-01T11:11:02.978Z,17.10
2022-11-01T11:13:29.259Z,17.00
2022-11-01T11:16:06.014Z,16.90
2022-11-01T11:18:35.822Z,16.90
2022-11-01T11:21:11.066Z,17.00
2022-11-01T11:23:41.939Z,17.30
2022-11-01T11:26:09.147Z,17.30
2022-11-01T11:28:41.869Z,17.40
2022-11-01T11:31:20.563Z,17.70
2022-11-01T11:35:40.019Z,17.80
2022-11-01T11:38:06.912Z,17.80
2022-11-01T11:40:43.312Z,17.80
2022-11-01T11:43:34.666Z,17.60
2022-11-01T11:46:06.559Z,17.50
2022-11-01T11:48:33.512Z,17.50
2022-11-01T11:51:04.343Z,17.60
2022-11-01T11:53:33.580Z,17.60
2022-11-01T11:56:06.072Z,17.80
2022-11-01T11:58:43.654Z,17.70
2022-11-01T12:01:15.052Z,17.60
2022-11-01T12:04:24.458Z,17.40
2022-11-01T12:06:51.503Z,17.30
2022-11-01T12:09:47.343Z,17.50
2022-11-01T12:12:40.056Z,17.60
2022-11-01T12:15:34.372Z,17.60
2022-11-01T12:18:18.294Z,17.70
2022-11-01T12:20:51.910Z,17.70
2022-11-01T12:23:36.071Z,17.80
2022-11-01T12:26:05.835Z,17.80
2022-11-01T12:28:40.247Z,17.50
2022-11-01T12:31:19.450Z,17.60
2022-11-01T12:40:38.275Z,17.70
2022-11-01T12:48:53.397Z,17.60
2022-11-01T12:51:28.632Z,17.80
2022-11-01T12:54:18.207Z,18.20
2022-11-01T12:56:44.769Z,18.10
2022-11-01T12:59:13.360Z,18.10
2022-11-01T13:01:56.672Z,18.00
2022-11-01T13:04:36.694Z,18.00
2022-11-01T13:10:59.349Z,18.00
2022-11-01T13:13:54.773Z,18.00
2022-11-01T13:16:36.041Z,18.20
2022-11-01T13:19:09.547Z,18.20
2022-11-01T13:21:44.203Z,18.10
2022-11-01T13:24:34.116Z,18.00
2022-11-01T13:30:15.070Z,17.80
2022-11-01T13:33:36.174Z,17.50
2022-11-01T13:36:33.601Z,17.30
2022-11-01T13:39:11.513Z,17.20
2022-11-01T13:44:22.502Z,17.00
2022-11-01T13:47:29.258Z,16.90
2022-11-01T13:54:16.242Z,16.70
2022-11-01T13:56:47.269Z,16.70
2022-11-01T13:59:44.132Z,16.80
2022-11-01T14:05:24.505Z,16.90
2022-11-01T14:08:14.783Z,17.10
2022-11-01T14:10:48.077Z,17.10
2022-11-01T14:13:15.888Z,17.10
2022-11-01T14:20:49.506Z,17.00
2022-11-01T14:25:28.413Z,16.50
2022-11-01T14:28:20.541Z,16.20
2022-11-01T14:30:49.947Z,16.10
2022-11-01T14:33:19.520Z,16.00
2022-11-01T14:35:51.154Z,15.90
2022-11-01T14:38:20.005Z,15.80
2022-11-01T14:40:55.774Z,15.70
2022-11-01T14:43:30.490Z,15.60
2022-11-01T14:46:02.433Z,15.50
2022-11-01T14:50:05.435Z,15.30
2022-11-01T14:52:39.884Z,15.10
2022-11-01T14:55:26.894Z,14.90
2022-11-01T14:58:20.546Z,14.60
2022-11-01T15:00:49.141Z,14.50
2022-11-01T15:03:15.856Z,14.40
2022-11-01T15:05:49.587Z,14.20
2022-11-01T15:08:44.570Z,14.00
2022-11-01T15:11:11.200Z,13.90
2022-11-01T15:13:41.745Z,13.70
2022-11-01T15:16:23.009Z,13.60
2022-11-01T15:19:02.745Z,13.50
2022-11-01T15:21:31.357Z,13.40
2022-11-01T15:23:59.177Z,13.30
2022-11-01T15:26:27.662Z,13.10
2022-11-01T15:29:03.919Z,13.00
2022-11-01T15:31:31.727Z,12.90
2022-11-01T15:34:19.629Z,12.80
2022-11-01T15:36:46.284Z,12.80
2022-11-01T15:39:36.465Z,12.70
2022-11-01T15:42:13.465Z,12.60
2022-11-01T15:44:45.159Z,12.50
2022-11-01T15:47:21.461Z,12.40
2022-11-01T15:50:02.245Z,12.30
2022-11-01T15:52:30.774Z,12.30
2022-11-01T15:55:27.778Z,13.90
2022-11-01T15:58:11.217Z,12.20
2022-11-01T16:00:41.699Z,12.20
2022-11-01T16:04:03.469Z,12.10
2022-11-01T16:06:39.308Z,12.10
2022-11-01T16:09:37.579Z,12.00
2022-11-01T16:12:05.210Z,12.00
2022-11-01T16:14:37.492Z,12.00
2022-11-01T16:17:23.070Z,11.90
2022-11-01T16:19:50.896Z,11.90
2022-11-01T16:22:48.631Z,11.80
2022-11-01T16:25:19.164Z,11.80
2022-11-01T16:29:48.352Z,11.80
2022-11-01T16:32:27.624Z,11.80
2022-11-01T16:35:00.099Z,11.80
2022-11-01T16:37:34.276Z,11.70
2022-11-01T16:40:23.795Z,11.70
2022-11-01T16:42:51.373Z,11.70
2022-11-01T16:45:18.947Z,11.70
2022-11-01T16:47:47.389Z,11.60
2022-11-01T16:50:18.807Z,11.60
2022-11-01T16:52:45.139Z,11.50
2022-11-01T16:55:11.920Z,11.60
2022-11-01T16:57:38.747Z,11.60
2022-11-01T17:00:12.983Z,11.50
2022-11-01T17:02:50.199Z,11.50
2022-11-01T17:05:22.900Z,12.50
2022-11-01T17:07:49.630Z,11.40
2022-11-01T17:10:18.802Z,11.40
2022-11-01T17:12:47.477Z,11.30
2022-11-01T17:15:14.814Z,11.30
2022-11-01T17:17:43.614Z,11.30
2022-11-01T17:20:26.165Z,11.30
2022-11-01T17:22:53.345Z,11.30
2022-11-01T17:25:20.374Z,11.30
2022-11-01T17:27:54.878Z,11.30
2022-11-01T17:30:21.076Z,11.30
2022-11-01T17:32:47.694Z,11.40
2022-11-01T17:35:20.353Z,11.40
2022-11-01T17:37:49.218Z,11.40
2022-11-01T17:40:22.058Z,11.40
2022-11-01T17:42:51.963Z,11.40
2022-11-01T17:45:18.337Z,11.50
2022-11-01T17:47:45.705Z,11.50
2022-11-01T17:50:15.226Z,11.50
2022-11-01T17:52:42.802Z,11.60
2022-11-01T17:55:10.479Z,11.60
2022-11-01T17:57:38.091Z,11.70
2022-11-01T18:00:05.830Z,11.70
2022-11-01T18:02:32.516Z,11.70
2022-11-01T18:04:58.942Z,11.70
2022-11-01T18:07:27.066Z,11.70
2022-11-01T18:09:56.852Z,11.70
2022-11-01T18:12:38.028Z,11.70
2022-11-01T18:15:27.682Z,11.80
2022-11-01T18:19:46.730Z,11.80
2022-11-01T18:23:14.413Z,11.90
2022-11-01T18:25:47.555Z,12.00
2022-11-01T18:28:26.047Z,12.00
2022-11-01T18:31:09.141Z,12.10
2022-11-01T18:33:52.478Z,12.10
2022-11-01T18:36:30.403Z,12.10
2022-11-01T18:39:15.745Z,12.20
2022-11-01T18:41:47.829Z,12.20
2022-11-01T18:44:15.495Z,12.20
2022-11-01T18:47:47.563Z,12.20
2022-11-01T18:50:26.160Z,12.20
2022-11-01T18:53:06.541Z,12.20
2022-11-01T18:55:33.488Z,12.20
2022-11-01T18:58:08.999Z,12.10
2022-11-01T19:00:35.955Z,12.10
2022-11-01T19:03:13.170Z,12.10
2022-11-01T19:05:42.187Z,12.00
2022-11-01T19:08:26.225Z,12.00
2022-11-01T19:10:53.713Z,12.00
2022-11-01T19:13:32.672Z,12.10
2022-11-01T19:16:01.720Z,12.10
2022-11-01T19:18:28.113Z,12.10
2022-11-01T19:21:00.524Z,12.20
2022-11-01T19:23:40.297Z,12.20
2022-11-01T19:26:38.546Z,12.10
2022-11-01T19:29:25.836Z,12.10
2022-11-01T19:31:58.173Z,12.00
2022-11-01T19:34:32.265Z,11.90
2022-11-01T19:37:01.764Z,11.80
2022-11-01T19:39:31.237Z,11.80
2022-11-01T19:42:02.731Z,11.90
2022-11-01T19:44:33.318Z,11.90
2022-11-01T19:50:39.644Z,12.00
2022-11-01T19:54:08.626Z,12.00
2022-11-01T19:56:35.586Z,12.10
2022-11-01T19:59:04.425Z,12.10
2022-11-01T20:01:45.605Z,12.10
2022-11-01T20:04:29.689Z,12.10
2022-11-01T20:07:13.159Z,12.10
2022-11-01T20:09:41.518Z,12.10
2022-11-01T20:12:09.461Z,12.10
2022-11-01T20:14:37.777Z,12.10
2022-11-01T20:17:11.974Z,12.00
2022-11-01T20:19:44.404Z,12.00
2022-11-01T20:22:26.991Z,12.00
2022-11-01T20:24:55.449Z,12.00
2022-11-01T20:27:25.160Z,11.90
2022-11-01T20:29:51.759Z,11.90
2022-11-01T20:32:22.443Z,12.00
2022-11-01T20:34:50.419Z,11.90
2022-11-01T20:37:33.065Z,11.90
2022-11-01T20:40:03.217Z,11.90
2022-11-01T20:42:31.541Z,11.80
2022-11-01T20:45:02.016Z,11.70
2022-11-01T20:47:29.994Z,11.70
2022-11-01T20:49:57.208Z,11.60
2022-11-01T20:52:39.184Z,11.60
2022-11-01T20:55:08.721Z,11.50
2022-11-01T20:57:40.293Z,11.50
2022-11-01T21:00:17.953Z,11.50
2022-11-01T21:02:50.842Z,11.50
2022-11-01T21:05:28.809Z,11.40
2022-11-01T21:11:43.023Z,11.30
2022-11-01T21:14:17.714Z,11.20
2022-11-01T21:16:44.245Z,11.10
2022-11-01T21:19:23.486Z,11.00
2022-11-01T21:22:06.335Z,10.90
2022-11-01T21:24:36.879Z,10.80
2022-11-01T21:27:48.245Z,10.70
2022-11-01T21:30:17.098Z,10.70
2022-11-01T21:32:45.483Z,10.70
2022-11-01T21:37:50.890Z,10.60
2022-11-01T21:40:26.315Z,10.50
2022-11-01T21:42:53.207Z,10.40
2022-11-01T21:45:32.497Z,10.40
2022-11-01T21:48:01.610Z,10.30
2022-11-01T21:50:28.341Z,10.30
2022-11-01T21:52:55.073Z,10.30
2022-11-01T21:55:22.047Z,10.20
2022-11-01T21:57:48.547Z,10.10
2022-11-01T22:00:16.084Z,10.00
2022-11-01T22:02:42.945Z,10.00
2022-11-01T22:05:10.110Z,10.00
2022-11-01T22:07:36.748Z,9.90
2022-11-01T22:10:04.542Z,9.90
2022-11-01T22:12:32.259Z,9.80
2022-11-01T22:14:58.682Z,9.70
2022-11-01T22:17:26.177Z,9.60
2022-11-01T22:19:52.576Z,9.50
2022-11-01T22:22:26.180Z,9.50
2022-11-01T22:24:52.853Z,9.40
2022-11-01T22:27:20.030Z,9.30
2022-11-01T22:29:47.768Z,9.20
2022-11-01T22:32:14.491Z,9.30
2022-11-01T22:34:41.020Z,9.30
2022-11-01T22:37:14.184Z,9.30
2022-11-01T22:39:41.564Z,9.30
2022-11-01T22:42:15.112Z,9.20
2022-11-01T22:44:42.450Z,9.20
2022-11-01T22:47:14.457Z,9.20
2022-11-01T22:49:41.789Z,9.30
2022-11-01T22:52:36.217Z,9.30
2022-11-01T22:55:17.852Z,9.20
2022-11-01T22:57:47.271Z,9.00
2022-11-01T23:01:19.420Z,8.90
2022-11-01T23:03:51.156Z,8.90
2022-11-01T23:06:31.684Z,8.90
2022-11-01T23:09:01.176Z,9.30
2022-11-01T23:13:03.029Z,8.80
2022-11-01T23:15:30.826Z,8.70
2022-11-01T23:21:29.795Z,8.60
2022-11-01T23:23:58.634Z,8.50
2022-11-01T23:26:25.455Z,8.60
2022-11-01T23:28:52.440Z,8.50
2022-11-01T23:31:19.247Z,8.40
2022-11-01T23:33:47.727Z,8.40
2022-11-01T23:36:30.546Z,8.30
2022-11-01T23:39:01.370Z,8.20
2022-11-01T23:41:38.252Z,8.10
2022-11-01T23:44:28.453Z,8.10
2022-11-01T23:47:37.999Z,8.10
2022-11-01T23:50:23.875Z,8.00
2022-11-01T23:52:56.958Z,7.90
2022-11-01T23:55:37.339Z,8.00
2022-11-01T23:58:05.993Z,8.10
